METAR Data
IDs: Format: Raw Decoded Include TAF

Data at: 2107 UTC 26 May 2019

METAR for:KMWO (Middletown/Hook Fld, OH, US)
Text:KMWO 262055Z AUTO 36009G15KT 10SM SCT060 SCT070 SCT110 27/19 A3000 RMK AO2 LTG DSNT SE AND S T02720193
Temperature: 27.2°C ( 81°F)
Dewpoint: 19.3°C ( 67°F) [RH = 62%]
Pressure (altimeter):30.00 inches Hg (1016.0 mb)
Winds:from the N (360 degrees) at 10 MPH (9 knots; 4.6 m/s) gusting to 17 MPH (15 knots; 7.7 m/s)
Visibility:10 or more sm (16+ km)
Ceiling:at least 12,000 feet AGL
Clouds: scattered clouds at 6000 feet AGL, scattered clouds at 7000 feet AGL, scattered clouds at 11000 feet AGL
QC Flag:automated observation with no human augmentation